createdAt,value
2018-03-27T00:00:33.955Z,5.57
2018-03-27T00:01:33.926Z,5.54
2018-03-27T00:02:33.907Z,5.61
2018-03-27T00:03:33.912Z,5.65
2018-03-27T00:04:33.385Z,5.63
2018-03-27T00:05:33.885Z,5.74
2018-03-27T00:06:33.858Z,5.75
2018-03-27T00:07:33.861Z,5.75
2018-03-27T00:08:33.580Z,5.86
2018-03-27T00:09:33.823Z,5.79
2018-03-27T00:10:33.562Z,5.78
2018-03-27T00:11:33.804Z,5.64
2018-03-27T00:12:33.552Z,5.65
2018-03-27T00:13:33.780Z,5.58
2018-03-27T00:14:33.781Z,5.56
2018-03-27T00:15:33.765Z,5.53
2018-03-27T00:16:33.881Z,5.67
2018-03-27T00:17:33.728Z,5.53
2018-03-27T00:18:33.473Z,5.6
2018-03-27T00:19:33.720Z,5.56
2018-03-27T00:20:33.693Z,5.58
2018-03-27T00:21:33.429Z,5.63
2018-03-27T00:22:33.687Z,5.56
2018-03-27T00:23:33.660Z,5.53
2018-03-27T00:24:33.649Z,5.46
2018-03-27T00:25:33.633Z,5.43
2018-03-27T00:26:33.625Z,5.46
2018-03-27T00:27:33.614Z,5.45
2018-03-27T00:28:33.609Z,5.49
2018-03-27T00:29:33.085Z,5.54
2018-03-27T00:30:33.578Z,5.45
2018-03-27T00:31:33.620Z,5.6
2018-03-27T00:32:33.561Z,5.49
2018-03-27T00:33:33.560Z,5.56
2018-03-27T00:34:33.529Z,5.53
2018-03-27T00:35:33.513Z,5.51
2018-03-27T00:36:33.251Z,5.45
2018-03-27T00:37:33.500Z,5.54
2018-03-27T00:38:33.481Z,5.51
2018-03-27T00:39:33.214Z,5.58
2018-03-27T00:40:32.951Z,5.58
2018-03-27T00:41:33.444Z,5.58
2018-03-27T00:42:33.436Z,5.56
2018-03-27T00:43:33.426Z,5.6
2018-03-27T00:44:33.412Z,5.67
2018-03-27T00:45:33.400Z,5.64
2018-03-27T00:46:33.410Z,5.75
2018-03-27T00:47:33.376Z,5.75
2018-03-27T00:48:33.358Z,5.79
2018-03-27T00:49:33.101Z,5.82
2018-03-27T00:50:33.084Z,5.85
2018-03-27T00:51:33.071Z,5.96
2018-03-27T00:52:33.310Z,5.82
2018-03-27T00:53:33.046Z,5.83
2018-03-27T00:54:33.300Z,5.86
2018-03-27T00:55:33.289Z,5.74
2018-03-27T00:56:33.266Z,5.85
2018-03-27T00:57:33.251Z,5.83
2018-03-27T00:58:32.993Z,5.9
2018-03-27T00:59:33.241Z,5.89
2018-03-27T01:00:33.224Z,5.89
2018-03-27T01:01:32.956Z,5.86
2018-03-27T01:02:33.205Z,5.89
2018-03-27T01:03:33.182Z,5.85
2018-03-27T01:04:33.172Z,5.83
2018-03-27T01:05:33.163Z,5.89
2018-03-27T01:06:33.154Z,5.81
2018-03-27T01:07:33.138Z,5.91
2018-03-27T01:08:32.617Z,5.96
2018-03-27T01:09:33.115Z,5.93
2018-03-27T01:10:33.098Z,5.85
2018-03-27T01:11:33.093Z,5.91
2018-03-27T01:12:32.822Z,5.94
2018-03-27T01:13:33.068Z,5.93
2018-03-27T01:14:33.058Z,6
2018-03-27T01:15:33.044Z,5.96
2018-03-27T01:16:33.034Z,5.93
2018-03-27T01:17:32.765Z,5.94
2018-03-27T01:18:33.007Z,6.03
2018-03-27T01:19:32.993Z,5.99
2018-03-27T01:20:32.985Z,5.93
2018-03-27T01:21:32.972Z,5.93
2018-03-27T01:22:32.960Z,5.9
2018-03-27T01:23:32.960Z,5.86
2018-03-27T01:24:32.683Z,5.93
2018-03-27T01:25:32.930Z,5.96
2018-03-27T01:26:32.918Z,5.85
2018-03-27T01:27:32.648Z,5.86
2018-03-27T01:28:32.890Z,5.83
2018-03-27T01:29:32.886Z,5.83
2018-03-27T01:30:32.876Z,5.85
2018-03-27T01:31:32.861Z,5.86
2018-03-27T01:32:32.845Z,5.81
2018-03-27T01:33:32.833Z,5.83
2018-03-27T01:34:32.567Z,5.9
2018-03-27T01:35:32.812Z,5.9
2018-03-27T01:36:32.798Z,5.81
2018-03-27T01:37:32.788Z,5.9
2018-03-27T01:38:32.267Z,5.9
2018-03-27T01:39:32.807Z,5.82
2018-03-27T01:40:32.771Z,5.83
2018-03-27T01:41:32.759Z,5.89
2018-03-27T01:42:32.743Z,5.91
2018-03-27T01:43:32.721Z,5.89
2018-03-27T01:44:32.727Z,5.78
2018-03-27T01:45:32.448Z,5.82
2018-03-27T01:46:32.681Z,5.81
2018-03-27T01:47:32.672Z,5.71
2018-03-27T01:48:32.661Z,5.74
2018-03-27T01:49:32.404Z,5.74
2018-03-27T01:50:32.674Z,5.71
2018-03-27T01:51:32.634Z,5.64
2018-03-27T01:52:32.355Z,5.68
2018-03-27T01:53:32.357Z,5.64
2018-03-27T01:54:32.351Z,5.71
2018-03-27T01:55:32.078Z,5.72
2018-03-27T01:56:32.587Z,5.74
2018-03-27T01:57:32.604Z,5.78
2018-03-27T01:58:32.296Z,5.76
2018-03-27T01:59:32.293Z,5.82
2018-03-27T02:00:32.278Z,5.81
2018-03-27T02:01:32.544Z,5.93
2018-03-27T02:02:32.502Z,5.86
2018-03-27T02:03:32.478Z,5.9
2018-03-27T02:04:32.467Z,5.83
2018-03-27T02:05:32.483Z,5.85
2018-03-27T02:06:32.454Z,5.82
2018-03-27T02:07:32.450Z,5.81
2018-03-27T02:08:32.168Z,5.79
2018-03-27T02:09:32.409Z,5.86
2018-03-27T02:10:31.891Z,5.79
2018-03-27T02:11:32.155Z,5.86
2018-03-27T02:12:32.382Z,5.74
2018-03-27T02:13:32.375Z,5.75
2018-03-27T02:14:32.108Z,5.78
2018-03-27T02:15:32.359Z,5.75
2018-03-27T02:16:32.332Z,5.72
2018-03-27T02:17:32.315Z,5.65
2018-03-27T02:18:32.326Z,5.68
2018-03-27T02:19:32.344Z,5.61
2018-03-27T02:20:32.349Z,5.71
2018-03-27T02:21:32.277Z,5.75
2018-03-27T02:22:32.265Z,5.75
2018-03-27T02:23:32.247Z,5.78
2018-03-27T02:24:32.255Z,5.81
2018-03-27T02:25:32.233Z,5.9
2018-03-27T02:26:32.217Z,5.93
2018-03-27T02:27:32.201Z,5.93
2018-03-27T02:28:31.931Z,6.06
2018-03-27T02:29:32.189Z,6.09
2018-03-27T02:30:32.164Z,6.04
2018-03-27T02:31:32.174Z,6.03
2018-03-27T02:32:32.145Z,6.08
2018-03-27T02:33:32.131Z,6.09
2018-03-27T02:34:31.873Z,6.04
2018-03-27T02:35:32.109Z,6.08
2018-03-27T02:36:31.857Z,6
2018-03-27T02:37:32.092Z,5.96
2018-03-27T02:38:31.820Z,5.96
2018-03-27T02:39:31.552Z,5.89
2018-03-27T02:40:31.539Z,5.96
2018-03-27T02:41:32.053Z,5.97
2018-03-27T02:42:32.032Z,5.97
2018-03-27T02:43:32.012Z,5.97
2018-03-27T02:44:32.008Z,5.94
2018-03-27T02:45:31.987Z,5.96
2018-03-27T02:46:31.979Z,5.85
2018-03-27T02:47:31.969Z,5.76
2018-03-27T02:48:31.966Z,5.85
2018-03-27T02:49:31.949Z,5.83
2018-03-27T02:50:31.678Z,5.85
2018-03-27T02:51:31.671Z,5.89
2018-03-27T02:52:31.667Z,5.83
2018-03-27T02:53:31.398Z,5.83
2018-03-27T02:54:31.915Z,5.89
2018-03-27T02:55:31.885Z,5.86
2018-03-27T02:56:31.866Z,5.86
2018-03-27T02:57:31.847Z,5.91
2018-03-27T02:58:31.840Z,5.86
2018-03-27T02:59:31.576Z,5.79
2018-03-27T03:00:31.565Z,5.82
2018-03-27T03:01:31.826Z,5.89
2018-03-27T03:02:31.801Z,5.74
2018-03-27T03:03:31.804Z,5.76
2018-03-27T03:04:31.258Z,5.81
2018-03-27T03:05:31.757Z,5.79
2018-03-27T03:06:31.751Z,5.81
2018-03-27T03:07:31.745Z,5.82
2018-03-27T03:08:31.478Z,5.85
2018-03-27T03:09:31.711Z,5.82
2018-03-27T03:10:31.698Z,5.78
2018-03-27T03:11:31.430Z,5.71
2018-03-27T03:12:31.680Z,5.72
2018-03-27T03:13:31.409Z,5.64
2018-03-27T03:14:31.392Z,5.63
2018-03-27T03:15:31.382Z,5.71
2018-03-27T03:16:31.623Z,5.68
2018-03-27T03:17:31.610Z,5.74
2018-03-27T03:18:31.602Z,5.72
2018-03-27T03:19:31.586Z,5.64
2018-03-27T03:20:31.637Z,5.81
2018-03-27T03:21:31.311Z,5.83
2018-03-27T03:22:31.550Z,5.89
2018-03-27T03:23:31.541Z,5.89
2018-03-27T03:24:31.538Z,5.85
2018-03-27T03:25:31.012Z,5.89
2018-03-27T03:26:31.504Z,5.89
2018-03-27T03:27:31.500Z,5.89
2018-03-27T03:28:31.485Z,5.9
2018-03-27T03:29:31.217Z,5.82
2018-03-27T03:30:31.216Z,5.85
2018-03-27T03:31:31.448Z,5.86
2018-03-27T03:32:31.435Z,5.82
2018-03-27T03:33:31.433Z,5.9
2018-03-27T03:34:31.157Z,5.89
2018-03-27T03:35:31.398Z,5.78
2018-03-27T03:36:31.384Z,5.71
2018-03-27T03:37:31.373Z,5.64
2018-03-27T03:38:31.111Z,5.51
2018-03-27T03:39:31.351Z,5.65
2018-03-27T03:40:31.341Z,5.65
2018-03-27T03:41:31.079Z,5.58
2018-03-27T03:42:31.068Z,5.58
2018-03-27T03:43:31.324Z,5.63
2018-03-27T03:44:31.055Z,5.6
2018-03-27T03:45:31.281Z,5.53
2018-03-27T03:46:31.267Z,5.51
2018-03-27T03:47:31.254Z,5.6
2018-03-27T03:48:31.243Z,5.54
2018-03-27T03:49:30.980Z,5.46
2018-03-27T03:50:31.219Z,5.48
2018-03-27T03:51:31.208Z,5.43
2018-03-27T03:52:31.199Z,5.56
2018-03-27T03:53:31.187Z,5.58
2018-03-27T03:54:30.920Z,5.54
2018-03-27T03:55:31.168Z,5.43
2018-03-27T03:56:31.149Z,5.38
2018-03-27T03:57:31.139Z,5.39
2018-03-27T03:58:31.129Z,5.25
2018-03-27T03:59:31.116Z,5.21
2018-03-27T04:00:31.233Z,5.22
2018-03-27T04:01:31.091Z,5.25
2018-03-27T04:02:31.078Z,5.1
2018-03-27T04:03:30.564Z,5.13
2018-03-27T04:04:30.802Z,5.07
2018-03-27T04:05:31.045Z,5.03
2018-03-27T04:06:30.776Z,5.06
2018-03-27T04:07:31.017Z,5.02
2018-03-27T04:08:31.005Z,4.94
2018-03-27T04:09:30.998Z,4.97
2018-03-27T04:10:30.983Z,4.99
2018-03-27T04:11:30.718Z,4.96
2018-03-27T04:12:30.958Z,4.97
2018-03-27T04:13:30.950Z,4.97
2018-03-27T04:14:30.947Z,4.92
2018-03-27T04:15:30.416Z,4.97
2018-03-27T04:16:30.910Z,4.96
2018-03-27T04:17:30.902Z,4.92
2018-03-27T04:18:30.884Z,5.02
2018-03-27T04:19:30.920Z,5
2018-03-27T04:20:30.866Z,5.1
2018-03-27T04:21:30.848Z,5.1
2018-03-27T04:22:30.587Z,5.18
2018-03-27T04:23:30.826Z,5.18
2018-03-27T04:24:30.817Z,5.13
2018-03-27T04:25:30.820Z,5.2
2018-03-27T04:26:30.534Z,5.35
2018-03-27T04:27:30.774Z,5.25
2018-03-27T04:28:30.768Z,5.3
2018-03-27T04:29:30.753Z,5.31
2018-03-27T04:30:30.738Z,5.38
2018-03-27T04:31:30.733Z,5.35
2018-03-27T04:32:30.460Z,5.39
2018-03-27T04:33:30.701Z,5.42
2018-03-27T04:34:30.688Z,5.54
2018-03-27T04:35:30.675Z,5.48
2018-03-27T04:36:30.668Z,5.51
2018-03-27T04:37:30.670Z,5.63
2018-03-27T04:38:30.648Z,5.6
2018-03-27T04:39:30.133Z,5.58
2018-03-27T04:40:30.622Z,5.54
2018-03-27T04:41:30.611Z,5.57
2018-03-27T04:42:30.591Z,5.65
2018-03-27T04:43:30.328Z,5.54
2018-03-27T04:44:30.570Z,5.72
2018-03-27T04:45:30.556Z,5.71
2018-03-27T04:46:30.542Z,5.81
2018-03-27T04:47:30.532Z,5.75
2018-03-27T04:48:30.268Z,5.76
2018-03-27T04:49:30.002Z,5.81
2018-03-27T04:50:30.496Z,5.83
2018-03-27T04:51:30.488Z,5.85
2018-03-27T04:52:30.612Z,5.85
2018-03-27T04:53:30.460Z,5.9
2018-03-27T04:54:30.203Z,5.86
2018-03-27T04:55:30.437Z,5.86
2018-03-27T04:56:30.434Z,5.82
2018-03-27T04:57:30.159Z,5.89
2018-03-27T04:58:30.403Z,5.82
2018-03-27T04:59:30.136Z,5.83
2018-03-27T05:00:30.123Z,5.83
2018-03-27T05:01:30.365Z,5.86
2018-03-27T05:02:30.196Z,5.83
2018-03-27T05:03:30.091Z,5.91
2018-03-27T05:04:30.080Z,5.86
2018-03-27T05:05:29.813Z,5.83
2018-03-27T05:06:30.307Z,5.81
2018-03-27T05:07:30.041Z,5.79
2018-03-27T05:08:30.286Z,5.82
2018-03-27T05:09:30.277Z,5.71
2018-03-27T05:10:30.006Z,5.91
2018-03-27T05:11:30.012Z,5.79
2018-03-27T05:12:29.981Z,5.86
2018-03-27T05:13:30.227Z,5.83
2018-03-27T05:14:30.250Z,5.75
2018-03-27T05:15:29.944Z,5.76
2018-03-27T05:16:30.186Z,5.63
2018-03-27T05:17:30.176Z,5.6
2018-03-27T05:18:30.168Z,5.49
2018-03-27T05:19:29.897Z,5.46
2018-03-27T05:20:29.885Z,5.53
2018-03-27T05:21:30.131Z,5.42
2018-03-27T05:22:29.870Z,5.38
2018-03-27T05:23:30.113Z,5.39
2018-03-27T05:24:29.839Z,5.35
2018-03-27T05:25:30.083Z,5.36
2018-03-27T05:26:30.119Z,5.45
2018-03-27T05:27:30.056Z,5.42
2018-03-27T05:28:30.047Z,5.56
2018-03-27T05:29:29.785Z,5.56
2018-03-27T05:30:30.021Z,5.54
2018-03-27T05:31:30.006Z,5.6
2018-03-27T05:32:29.996Z,5.56
2018-03-27T05:33:29.741Z,5.64
2018-03-27T05:34:29.980Z,5.64
2018-03-27T05:35:29.962Z,5.74
2018-03-27T05:36:29.960Z,5.82
2018-03-27T05:37:29.936Z,5.91
2018-03-27T05:38:29.923Z,5.93
2018-03-27T05:39:29.930Z,5.9
2018-03-27T05:40:29.648Z,5.91
2018-03-27T05:41:29.905Z,5.81
2018-03-27T05:42:29.877Z,5.82
2018-03-27T05:43:29.870Z,5.76
2018-03-27T05:44:29.877Z,5.68
2018-03-27T05:45:29.616Z,5.74
2018-03-27T05:46:29.579Z,5.74
2018-03-27T05:47:29.819Z,5.86
2018-03-27T05:48:29.817Z,5.85
2018-03-27T05:49:29.544Z,5.79
2018-03-27T05:50:29.790Z,5.9
2018-03-27T05:51:29.772Z,5.89
2018-03-27T05:52:29.761Z,5.81
2018-03-27T05:53:29.751Z,5.82
2018-03-27T05:54:29.230Z,5.93
2018-03-27T05:55:29.472Z,5.9
2018-03-27T05:56:29.716Z,5.86
2018-03-27T05:57:29.705Z,5.99
2018-03-27T05:58:29.692Z,6.14
2018-03-27T05:59:29.425Z,6.12
2018-03-27T06:00:29.667Z,6.18
2018-03-27T06:01:29.654Z,6.37
2018-03-27T06:02:29.399Z,6.49
2018-03-27T06:03:29.633Z,6.71
2018-03-27T06:04:29.380Z,6.84
2018-03-27T06:05:29.103Z,6.79
2018-03-27T06:06:29.764Z,6.99
2018-03-27T06:07:29.336Z,7.12
2018-03-27T06:08:29.594Z,7.17
2018-03-27T06:09:29.059Z,7.24
2018-03-27T06:10:29.640Z,7.25
2018-03-27T06:11:29.036Z,7.35
2018-03-27T06:12:29.540Z,7.42
2018-03-27T06:13:29.537Z,7.39
2018-03-27T06:14:29.257Z,7.52
2018-03-27T06:15:29.505Z,7.6
2018-03-27T06:16:29.240Z,7.48
2018-03-27T06:17:29.488Z,7.55
2018-03-27T06:18:29.466Z,7.64
2018-03-27T06:19:28.950Z,7.52
2018-03-27T06:20:29.445Z,7.52
2018-03-27T06:21:29.451Z,7.58
2018-03-27T06:22:29.426Z,7.52
2018-03-27T06:23:29.447Z,7.45
2018-03-27T06:24:29.211Z,7.6
2018-03-27T06:25:29.155Z,7.5
2018-03-27T06:26:29.132Z,7.63
2018-03-27T06:27:29.237Z,7.68
2018-03-27T06:28:29.364Z,7.69
2018-03-27T06:29:29.374Z,7.75
2018-03-27T06:30:29.341Z,7.86
2018-03-27T06:31:29.333Z,7.87
2018-03-27T06:32:29.316Z,8
2018-03-27T06:33:29.315Z,8.01
2018-03-27T06:34:29.297Z,8.04
2018-03-27T06:35:29.090Z,8.16
2018-03-27T06:36:29.038Z,8.22
2018-03-27T06:37:29.268Z,8.19
2018-03-27T06:38:29.255Z,8.25
2018-03-27T06:39:28.743Z,8.34
2018-03-27T06:40:29.234Z,8.4
2018-03-27T06:41:29.228Z,8.37
2018-03-27T06:42:29.217Z,8.43
2018-03-27T06:43:29.204Z,8.43
2018-03-27T06:44:29.198Z,8.55
2018-03-27T06:45:29.194Z,8.61
2018-03-27T06:46:29.197Z,8.66
2018-03-27T06:47:29.179Z,8.7
2018-03-27T06:48:29.161Z,8.83
2018-03-27T06:49:28.893Z,8.99
2018-03-27T06:50:29.140Z,8.95
2018-03-27T06:51:29.128Z,8.98
2018-03-27T06:52:28.862Z,8.98
2018-03-27T06:53:29.107Z,9.04
2018-03-27T06:54:28.848Z,9.11
2018-03-27T06:55:28.855Z,9.13
2018-03-27T06:56:29.093Z,9.18
2018-03-27T06:57:28.823Z,9.31
2018-03-27T06:58:29.059Z,9.35
2018-03-27T06:59:29.061Z,9.29
2018-03-27T07:00:29.048Z,9.46
2018-03-27T07:01:28.780Z,9.48
2018-03-27T07:02:29.055Z,9.53
2018-03-27T07:03:29.080Z,9.58
2018-03-27T07:04:29.016Z,9.65
2018-03-27T07:05:28.889Z,9.64
2018-03-27T07:06:29.062Z,9.56
2018-03-27T07:07:29.027Z,9.66
2018-03-27T07:08:29.010Z,9.72
2018-03-27T07:09:28.742Z,9.72
2018-03-27T07:10:28.990Z,9.83
2018-03-27T07:11:28.990Z,9.79
2018-03-27T07:12:28.724Z,9.78
2018-03-27T07:13:28.989Z,9.78
2018-03-27T07:14:28.947Z,9.81
2018-03-27T07:15:28.699Z,9.87
2018-03-27T07:16:28.925Z,9.79
2018-03-27T07:17:28.645Z,9.89
2018-03-27T07:18:28.933Z,9.93
2018-03-27T07:19:28.674Z,10.11
2018-03-27T07:20:28.686Z,10.11
2018-03-27T07:21:28.880Z,10.09
2018-03-27T07:22:28.903Z,10.11
2018-03-27T07:23:28.860Z,10.14
2018-03-27T07:24:28.859Z,10.09
2018-03-27T07:25:28.331Z,10.12
2018-03-27T07:26:28.830Z,10.09
2018-03-27T07:27:28.830Z,10.02
2018-03-27T07:28:28.814Z,10.08
2018-03-27T07:29:28.821Z,10.09
2018-03-27T07:30:28.832Z,9.96
2018-03-27T07:31:28.808Z,9.99
2018-03-27T07:32:28.848Z,9.91
2018-03-27T07:33:28.546Z,10.01
2018-03-27T07:34:28.780Z,9.91
2018-03-27T07:35:28.778Z,10.08
2018-03-27T07:36:28.256Z,10.17
2018-03-27T07:37:28.780Z,10.36
2018-03-27T07:38:28.752Z,10.48
2018-03-27T07:39:28.743Z,10.74
2018-03-27T07:40:28.842Z,10.97
2018-03-27T07:41:28.748Z,11.35
2018-03-27T07:42:28.738Z,11.49
2018-03-27T07:43:28.484Z,11.7
2018-03-27T07:44:28.477Z,12.01
2018-03-27T07:45:28.721Z,12.23
2018-03-27T07:46:28.723Z,12.56
2018-03-27T07:47:28.741Z,12.79
2018-03-27T07:48:28.710Z,13.01
2018-03-27T07:49:28.714Z,13.25
2018-03-27T07:50:28.459Z,13.42
2018-03-27T07:51:28.729Z,13.62
2018-03-27T07:52:28.732Z,13.84
2018-03-27T07:53:28.727Z,14.07
2018-03-27T07:54:28.757Z,14.21
2018-03-27T07:55:28.698Z,14.37
2018-03-27T07:56:28.701Z,14.47
2018-03-27T07:57:28.698Z,14.6
2018-03-27T07:58:28.702Z,14.75
2018-03-27T07:59:28.448Z,14.73
2018-03-27T08:00:28.443Z,14.8
2018-03-27T08:01:28.442Z,14.69
2018-03-27T08:02:28.189Z,14.83
2018-03-27T08:03:28.759Z,14.73
2018-03-27T08:04:28.714Z,14.64
2018-03-27T08:05:28.690Z,14.68
2018-03-27T08:06:28.697Z,14.6
2018-03-27T08:07:28.694Z,14.39
2018-03-27T08:08:28.688Z,14.27
2018-03-27T08:09:28.441Z,14.21
2018-03-27T08:10:28.426Z,14.06
2018-03-27T08:11:28.690Z,13.85
2018-03-27T08:12:28.730Z,13.7
2018-03-27T08:13:28.690Z,13.59
2018-03-27T08:14:28.425Z,13.55
2018-03-27T08:15:28.668Z,13.44
2018-03-27T08:16:28.723Z,13.42
2018-03-27T08:17:28.680Z,13.44
2018-03-27T08:18:28.690Z,13.41
2018-03-27T08:19:28.153Z,13.39
2018-03-27T08:20:28.651Z,13.55
2018-03-27T08:21:28.649Z,13.54
2018-03-27T08:22:28.648Z,13.59
2018-03-27T08:23:28.648Z,13.59
2018-03-27T08:24:28.796Z,13.49
2018-03-27T08:25:28.632Z,13.57
2018-03-27T08:26:28.629Z,13.57
2018-03-27T08:27:28.708Z,13.51
2018-03-27T08:28:28.644Z,13.55
2018-03-27T08:29:28.472Z,13.57
2018-03-27T08:30:28.104Z,13.62
2018-03-27T08:31:28.605Z,13.64
2018-03-27T08:32:28.349Z,13.69
2018-03-27T08:33:28.595Z,13.75
2018-03-27T08:34:28.383Z,13.71
2018-03-27T08:35:28.589Z,13.84
2018-03-27T08:36:28.911Z,13.7
2018-03-27T08:37:28.334Z,13.54
2018-03-27T08:38:28.375Z,13.22
2018-03-27T08:39:28.334Z,13.04
2018-03-27T08:40:28.590Z,12.83
2018-03-27T08:41:28.602Z,12.74
2018-03-27T08:42:28.567Z,12.52
2018-03-27T08:43:28.683Z,12.35
2018-03-27T08:44:28.542Z,12.23
2018-03-27T08:45:28.540Z,12.1
2018-03-27T08:46:28.541Z,11.96
2018-03-27T08:47:28.537Z,11.85
2018-03-27T08:48:28.519Z,11.9
2018-03-27T08:49:28.013Z,11.91
2018-03-27T08:50:28.531Z,11.86
2018-03-27T08:51:28.286Z,11.82
2018-03-27T08:52:28.260Z,11.94
2018-03-27T08:53:28.253Z,11.98
2018-03-27T08:54:28.292Z,12.07
2018-03-27T08:55:28.236Z,12.16
2018-03-27T08:56:28.227Z,12.21
2018-03-27T08:57:28.480Z,12.24
2018-03-27T08:58:28.465Z,12.37
2018-03-27T08:59:27.956Z,12.39
2018-03-27T09:00:28.453Z,12.46
2018-03-27T09:01:28.446Z,12.57
2018-03-27T09:02:28.469Z,12.59
2018-03-27T09:03:28.442Z,12.59
2018-03-27T09:04:28.183Z,12.56
2018-03-27T09:05:28.444Z,12.5
2018-03-27T09:06:28.175Z,12.52
2018-03-27T09:07:28.419Z,12.53
2018-03-27T09:08:28.165Z,12.53
2018-03-27T09:09:28.407Z,12.49
2018-03-27T09:10:28.411Z,12.5
2018-03-27T09:11:28.143Z,12.45
2018-03-27T09:12:28.139Z,12.42
2018-03-27T09:13:28.126Z,12.49
2018-03-27T09:14:28.121Z,12.32
2018-03-27T09:15:28.380Z,12.37
2018-03-27T09:16:28.426Z,12.23
2018-03-27T09:17:28.378Z,12.21
2018-03-27T09:18:28.099Z,12.27
2018-03-27T09:19:27.848Z,12.23
2018-03-27T09:20:28.343Z,12.23
2018-03-27T09:21:28.340Z,12.19
2018-03-27T09:22:27.831Z,12.13
2018-03-27T09:23:28.392Z,12.16
2018-03-27T09:24:28.324Z,12.21
2018-03-27T09:25:28.346Z,12.34
2018-03-27T09:26:28.372Z,12.35
2018-03-27T09:27:28.322Z,12.45
2018-03-27T09:28:28.054Z,12.5
2018-03-27T09:29:28.298Z,12.5
2018-03-27T09:30:28.325Z,12.64
2018-03-27T09:31:28.319Z,12.77
2018-03-27T09:32:28.304Z,12.9
2018-03-27T09:33:28.010Z,12.97
2018-03-27T09:34:28.020Z,13.05
2018-03-27T09:35:28.257Z,13.15
2018-03-27T09:36:28.012Z,13.15
2018-03-27T09:37:28.244Z,13.38
2018-03-27T09:38:27.779Z,13.41
2018-03-27T09:39:27.988Z,13.6
2018-03-27T09:40:28.239Z,13.75
2018-03-27T09:41:28.268Z,13.81
2018-03-27T09:42:27.969Z,14.02
2018-03-27T09:43:28.281Z,14.17
2018-03-27T09:44:27.975Z,14.24
2018-03-27T09:45:28.311Z,14.27
2018-03-27T09:46:27.954Z,14.29
2018-03-27T09:47:28.218Z,14.36
2018-03-27T09:48:28.222Z,14.27
2018-03-27T09:49:28.188Z,14.22
2018-03-27T09:50:28.197Z,14.15
2018-03-27T09:51:27.964Z,14.22
2018-03-27T09:52:28.214Z,14.33
2018-03-27T09:53:28.616Z,14.25
2018-03-27T09:54:27.901Z,14.43
2018-03-27T09:55:28.161Z,14.6
2018-03-27T09:56:28.166Z,14.54
2018-03-27T09:57:28.175Z,14.52
2018-03-27T09:58:28.265Z,14.51
2018-03-27T09:59:27.878Z,14.46
2018-03-27T10:00:28.151Z,14.35
2018-03-27T10:01:27.880Z,14.24
2018-03-27T10:02:28.124Z,14.28
2018-03-27T10:03:28.127Z,14.24
2018-03-27T10:04:27.900Z,14.03
2018-03-27T10:05:28.118Z,13.82
2018-03-27T10:06:28.102Z,13.78
2018-03-27T10:07:28.106Z,13.64
2018-03-27T10:08:28.102Z,13.64
2018-03-27T10:09:28.134Z,13.54
2018-03-27T10:10:28.082Z,13.49
2018-03-27T10:11:28.091Z,13.39
2018-03-27T10:12:28.093Z,13.44
2018-03-27T10:13:27.842Z,13.38
2018-03-27T10:14:27.810Z,13.39
2018-03-27T10:15:28.061Z,13.23
2018-03-27T10:16:28.054Z,13.25
2018-03-27T10:17:28.046Z,13.14
2018-03-27T10:18:28.057Z,13.05
2018-03-27T10:19:27.802Z,12.97
2018-03-27T10:20:28.044Z,12.97
2018-03-27T10:21:27.776Z,13.01
2018-03-27T10:22:28.029Z,13.01
2018-03-27T10:23:27.768Z,13.08
2018-03-27T10:24:28.015Z,13.12
2018-03-27T10:25:27.756Z,13.17
2018-03-27T10:26:28.000Z,13.26
2018-03-27T10:27:28.064Z,13.25
2018-03-27T10:28:27.736Z,13.36
2018-03-27T10:29:27.992Z,13.3
2018-03-27T10:30:27.724Z,13.39
2018-03-27T10:31:27.973Z,13.38
2018-03-27T10:32:27.967Z,13.38
2018-03-27T10:33:27.981Z,13.36
2018-03-27T10:34:27.979Z,13.32
2018-03-27T10:35:27.744Z,13.23
2018-03-27T10:36:27.720Z,13.26
2018-03-27T10:37:27.681Z,13.36
2018-03-27T10:38:27.954Z,13.25
2018-03-27T10:39:27.416Z,13.3
2018-03-27T10:40:27.924Z,13.28
2018-03-27T10:41:27.909Z,13.3
2018-03-27T10:42:27.932Z,13.26
2018-03-27T10:43:27.918Z,13.22
2018-03-27T10:44:27.896Z,13.29
2018-03-27T10:45:28.013Z,13.25
2018-03-27T10:46:27.896Z,13.22
2018-03-27T10:47:27.879Z,13.22
2018-03-27T10:48:27.873Z,13.32
2018-03-27T10:49:27.620Z,13.33
2018-03-27T10:50:27.883Z,13.41
2018-03-27T10:51:27.904Z,13.54
2018-03-27T10:52:27.845Z,13.63
2018-03-27T10:53:27.858Z,13.71
2018-03-27T10:54:27.355Z,13.7
2018-03-27T10:55:27.331Z,13.71
2018-03-27T10:56:27.583Z,13.88
2018-03-27T10:57:27.578Z,13.91
2018-03-27T10:58:27.588Z,14.06
2018-03-27T10:59:27.557Z,14.17
2018-03-27T11:00:27.560Z,14.18
2018-03-27T11:01:27.803Z,14.22
2018-03-27T11:02:27.841Z,14.22
2018-03-27T11:03:27.287Z,14.15
2018-03-27T11:04:27.793Z,14.2
2018-03-27T11:05:27.781Z,14.15
2018-03-27T11:06:27.519Z,14.18
2018-03-27T11:07:27.764Z,14.27
2018-03-27T11:08:27.783Z,14.33
2018-03-27T11:09:27.762Z,14.22
2018-03-27T11:10:27.754Z,14.27
2018-03-27T11:11:27.765Z,14.32
2018-03-27T11:12:27.796Z,14.33
2018-03-27T11:13:27.482Z,14.35
2018-03-27T11:14:27.820Z,14.28
2018-03-27T11:15:27.767Z,14.37
2018-03-27T11:16:27.500Z,14.4
2018-03-27T11:17:27.751Z,14.57
2018-03-27T11:18:27.496Z,14.68
2018-03-27T11:19:27.755Z,14.72
2018-03-27T11:20:27.703Z,14.81
2018-03-27T11:21:27.736Z,14.84
2018-03-27T11:22:27.763Z,14.89
2018-03-27T11:23:27.776Z,14.92
2018-03-27T11:24:27.766Z,15.03
2018-03-27T11:25:27.841Z,15.07
2018-03-27T11:26:27.718Z,15.2
2018-03-27T11:27:27.515Z,15.2
2018-03-27T11:28:27.763Z,15.25
2018-03-27T11:29:27.493Z,15.35
2018-03-27T11:30:27.707Z,15.5
2018-03-27T11:31:27.673Z,15.39
2018-03-27T11:32:27.675Z,15.53
2018-03-27T11:33:27.655Z,15.67
2018-03-27T11:34:27.410Z,15.74
2018-03-27T11:35:27.647Z,15.76
2018-03-27T11:36:27.640Z,15.76
2018-03-27T11:37:27.387Z,15.93
2018-03-27T11:38:27.704Z,16
2018-03-27T11:39:27.377Z,16.01
2018-03-27T11:40:27.695Z,15.97
2018-03-27T11:41:27.654Z,15.93
2018-03-27T11:42:27.654Z,16
2018-03-27T11:43:27.648Z,16.04
2018-03-27T11:44:27.671Z,16.08
2018-03-27T11:45:27.696Z,16.12
2018-03-27T11:46:27.682Z,16.14
2018-03-27T11:47:27.911Z,16.2
2018-03-27T11:48:27.473Z,16.28
2018-03-27T11:49:27.692Z,16.35
2018-03-27T11:50:27.397Z,16.39
2018-03-27T11:51:27.138Z,16.42
2018-03-27T11:52:27.671Z,16.43
2018-03-27T11:53:27.709Z,16.23
2018-03-27T11:54:27.658Z,15.94
2018-03-27T11:55:27.704Z,15.96
2018-03-27T11:56:27.705Z,15.84
2018-03-27T11:57:27.590Z,15.76
2018-03-27T11:58:27.577Z,15.67
2018-03-27T11:59:27.566Z,15.72
2018-03-27T12:00:27.304Z,15.75
2018-03-27T12:01:27.843Z,15.72
2018-03-27T12:02:27.561Z,15.76
2018-03-27T12:03:27.550Z,15.74
2018-03-27T12:04:27.301Z,15.68
2018-03-27T12:05:27.558Z,15.65
2018-03-27T12:06:27.549Z,15.68
2018-03-27T12:07:27.326Z,15.62
2018-03-27T12:08:27.521Z,15.6
2018-03-27T12:09:27.026Z,15.64
2018-03-27T12:10:27.340Z,15.43
2018-03-27T12:11:27.508Z,15.31
2018-03-27T12:12:27.256Z,15.25
2018-03-27T12:13:26.996Z,15.17
2018-03-27T12:14:27.250Z,15.23
2018-03-27T12:15:27.521Z,15.19
2018-03-27T12:16:27.531Z,15.17
2018-03-27T12:17:27.503Z,15.27
2018-03-27T12:18:27.501Z,15.46
2018-03-27T12:19:27.236Z,15.44
2018-03-27T12:20:27.485Z,15.39
2018-03-27T12:21:27.502Z,15.36
2018-03-27T12:22:27.467Z,15.2
2018-03-27T12:23:27.479Z,15.17
2018-03-27T12:24:27.464Z,15.03
2018-03-27T12:25:27.462Z,14.96
2018-03-27T12:26:27.460Z,14.83
2018-03-27T12:27:27.448Z,14.86
2018-03-27T12:28:27.450Z,14.91
2018-03-27T12:29:27.466Z,15.02
2018-03-27T12:30:27.442Z,15.13
2018-03-27T12:31:27.444Z,15.23
2018-03-27T12:32:27.428Z,15.39
2018-03-27T12:33:26.919Z,15.51
2018-03-27T12:34:27.444Z,15.67
2018-03-27T12:35:27.439Z,15.75
2018-03-27T12:36:27.427Z,15.83
2018-03-27T12:37:27.185Z,15.94
2018-03-27T12:38:27.438Z,15.93
2018-03-27T12:39:27.511Z,16.09
2018-03-27T12:40:27.398Z,16.08
2018-03-27T12:41:27.394Z,16.21
2018-03-27T12:42:27.498Z,16.21
2018-03-27T12:43:27.407Z,16.23
2018-03-27T12:44:27.415Z,16.31
2018-03-27T12:45:27.388Z,16.28
2018-03-27T12:46:27.403Z,16.33
2018-03-27T12:47:27.395Z,16.3
2018-03-27T12:48:27.393Z,16.3
2018-03-27T12:49:27.115Z,16.17
2018-03-27T12:50:27.384Z,16.14
2018-03-27T12:51:27.385Z,15.97
2018-03-27T12:52:27.370Z,16.04
2018-03-27T12:53:27.372Z,15.96
2018-03-27T12:54:27.121Z,15.94
2018-03-27T12:55:27.416Z,16.04
2018-03-27T12:56:27.346Z,16.11
2018-03-27T12:57:27.340Z,16.11
2018-03-27T12:58:27.367Z,16.15
2018-03-27T12:59:27.118Z,16.21
2018-03-27T13:00:27.165Z,16.25
2018-03-27T13:01:27.388Z,16.27
2018-03-27T13:02:26.856Z,16.34
2018-03-27T13:03:27.066Z,16.45
2018-03-27T13:04:27.316Z,16.56
2018-03-27T13:05:27.313Z,16.67
2018-03-27T13:06:27.323Z,16.6
2018-03-27T13:07:27.068Z,16.7
2018-03-27T13:08:27.070Z,16.66
2018-03-27T13:09:27.333Z,16.6